Strona główna
METAR-TAF:

METAR-TAF

Lotnisko :

Port lotniczy Umeå

Umeå, Szwecja

Szerokość geograficzna: 63-48N, Długość geograficzna: 020-17E, wysokość: 7 m

Aktualna obserwacja pogody

Raport powstał 27 minut temu, godzina 06:20 UTC
Wiatr 6 kt od południe, zmienny między południowo-południowy wschód i południowy zachód
Temperatura 2°C
Wilgotność 100%
Ciśnienie 993 hPa
Widzialność 10 km lub więcej
Zachmurzenie całkowite na wysokości 800 ft

METAR: ESNU 130620Z 19006KT 150V230 9999 OVC008 02/02 Q0993 R14/19//65

czas: 07:47 (06:47 UTC)

Prognoza

Raport powstał 1 godzina i 17 minut temu, godzina 05:30 UTC
Prognoza ważna od 13 godzina 06 UTC do 13 godzina 15 UTC
Wiatr 8 kt od południe
Widzialność 10 km lub więcej
Zachmurzenie całkowite na wysokości 600 ft
Przejściowo
od 13 godzina 06 UTC do 13 godzina 15 UTC
Rozproszone chmury na wysokości 600 ft
Przerywane chmury na wysokości 1500 ft

TAF: ESNU 130530Z 1306/1315 18008KT 9999 OVC006 TEMPO 1306/1315 SCT006 BKN015

Obserwacja i prognoza pogody dla ponad 4000 lotnisk (raport METAR i TAF).

Dostępne stacje oznaczono żółtymi i czerwonymi punktami na mapie.

Najedź kursorem aby zobaczyć nazwę stacji.

Kliknij aby zobaczyć obserwacje i prognozy pogody.

Aby zmienić mapę: kliknij na zielony przycisk z czarnym krzyżykiem, aby powiększyć; na zielony przycisk z myślnikiem, aby pomniejszyć; na zielone strzałki, aby przejść do map sąsiednich.


METAR-TAF: